Time;durP1;ratioP1;P1;durP2;ratioP2;P2;SDS_P1;SDS_P2;PMS_P1;PMS_P2;Temp;Humidity;BMP_temperature;BMP_pressure;BME280_temperature;BME280_humidity;BME280_pressure;Samples;Min_cycle;Max_cycle;Signal;HPM_P1;HPM_P2
2023/07/03 00:01:31;;;;;;;22.40;6.40;;;16.90;94.80;;;;;;5017289;28;20046;-69
2023/07/03 00:03:57;;;;;;;16.05;6.32;;;16.90;95.00;;;;;;5033709;28;20091;-69
2023/07/03 00:06:23;;;;;;;16.25;5.70;;;16.80;95.10;;;;;;5034561;28;20501;-69
2023/07/03 00:08:49;;;;;;;20.25;5.95;;;16.80;95.30;;;;;;5033302;28;20114;-69
2023/07/03 00:11:14;;;;;;;18.27;5.60;;;16.80;95.60;;;;;;5033297;28;20045;-69
2023/07/03 00:13:40;;;;;;;14.50;5.30;;;16.80;95.70;;;;;;5034757;28;20044;-69
2023/07/03 00:16:06;;;;;;;18.70;5.78;;;16.80;95.90;;;;;;5033205;28;20044;-69
2023/07/03 00:18:31;;;;;;;18.42;6.35;;;16.70;96.10;;;;;;5033105;28;20041;-69
2023/07/03 00:20:57;;;;;;;29.73;6.18;;;16.70;96.40;;;;;;5033323;28;20100;-69
2023/07/03 00:23:26;;;;;;;19.02;5.72;;;16.60;96.60;;;;;;5034301;28;20517;-69
2023/07/03 00:25:52;;;;;;;20.38;7.05;;;16.70;96.90;;;;;;5033000;28;20120;-69
2023/07/03 00:28:18;;;;;;;18.13;6.40;;;16.60;97.10;;;;;;5016641;28;20037;-69
2023/07/03 00:30:44;;;;;;;20.65;6.25;;;16.50;97.30;;;;;;5033144;28;20129;-69
2023/07/03 00:33:10;;;;;;;20.90;6.00;;;16.50;97.60;;;;;;5033097;28;20484;-69
2023/07/03 00:35:37;;;;;;;19.75;6.35;;;16.50;97.70;;;;;;5032823;28;20048;-69
2023/07/03 00:38:02;;;;;;;19.58;6.43;;;16.50;97.90;;;;;;5034055;28;20026;-69
2023/07/03 00:40:28;;;;;;;19.45;6.18;;;16.50;98.10;;;;;;5032728;28;20383;-69
2023/07/03 00:42:55;;;;;;;19.40;6.38;;;16.40;98.30;;;;;;5032424;28;20045;-69
2023/07/03 00:45:21;;;;;;;20.50;7.03;;;16.40;98.50;;;;;;5033888;28;20041;-69
2023/07/03 00:47:47;;;;;;;24.58;6.63;;;16.40;98.70;;;;;;5016046;28;20037;-69
2023/07/03 00:50:13;;;;;;;18.30;6.47;;;16.40;98.90;;;;;;5032566;28;20085;-69
2023/07/03 00:52:39;;;;;;;20.73;6.43;;;16.30;99.20;;;;;;5016051;28;20443;-70
2023/07/03 00:55:06;;;;;;;20.55;6.40;;;16.30;99.40;;;;;;5032680;28;20490;-69
2023/07/03 00:57:31;;;;;;;20.50;6.43;;;16.30;99.50;;;;;;5032257;28;20041;-69
2023/07/03 00:59:58;;;;;;;23.08;5.80;;;16.30;99.60;;;;;;5033861;28;20029;-69
2023/07/03 01:02:42;;;;;;;20.50;5.75;;;16.30;99.80;;;;;;5032621;28;20132;-69
2023/07/03 01:05:22;;;;;;;19.75;5.93;;;16.30;99.90;;;;;;5032597;28;20049;-69
2023/07/03 01:07:48;;;;;;;22.27;5.90;;;16.40;99.90;;;;;;5032220;28;20054;-69
2023/07/03 01:10:19;;;;;;;18.70;6.38;;;16.30;99.90;;;;;;5032081;28;20122;-69
2023/07/03 01:12:50;;;;;;;20.48;5.78;;;16.30;99.90;;;;;;5033994;28;20068;-69
2023/07/03 01:15:23;;;;;;;21.92;5.80;;;16.30;99.90;;;;;;5032189;28;20052;-69
2023/07/03 01:17:50;;;;;;;22.85;5.55;;;16.40;99.90;;;;;;5032002;28;20406;-69
2023/07/03 01:20:19;;;;;;;24.27;6.72;;;16.40;99.90;;;;;;5032067;28;20100;-69
2023/07/03 01:23:11;;;;;;;19.08;5.82;;;16.40;99.90;;;;;;5033490;28;20042;-69
2023/07/03 01:25:39;;;;;;;22.20;5.95;;;16.40;99.90;;;;;;5032042;28;20080;-69
2023/07/03 01:28:09;;;;;;;22.60;5.93;;;16.40;99.90;;;;;;5033100;28;20048;-69
2023/07/03 01:30:36;;;;;;;19.40;6.05;;;16.40;99.90;;;;;;5031935;28;20056;-69
2023/07/03 01:33:03;;;;;;;21.10;6.35;;;16.40;99.90;;;;;;5031902;28;20041;-69
2023/07/03 01:35:30;;;;;;;19.70;5.40;;;16.40;99.90;;;;;;5031902;28;20134;-69
2023/07/03 01:37:58;;;;;;;20.73;6.05;;;16.40;99.90;;;;;;5031807;28;20041;-69
2023/07/03 01:40:25;;;;;;;21.55;5.43;;;16.50;99.90;;;;;;5033087;28;20434;-69
2023/07/03 01:42:53;;;;;;;17.75;5.53;;;16.40;99.90;;;;;;5031813;28;20087;-69
2023/07/03 01:45:18;;;;;;;22.38;5.70;;;16.40;99.90;;;;;;5031804;28;20045;-69
2023/07/03 01:47:44;;;;;;;19.15;5.65;;;16.40;99.90;;;;;;5031685;28;20124;-69
2023/07/03 01:50:17;;;;;;;23.05;5.80;;;16.30;99.90;;;;;;5031667;28;20041;-69
2023/07/03 01:53:01;;;;;;;26.55;6.60;;;16.40;99.90;;;;;;5031777;28;20059;-69
2023/07/03 01:55:39;;;;;;;19.83;5.80;;;16.40;99.90;;;;;;5035688;28;20056;-69
2023/07/03 01:58:23;;;;;;;22.23;5.80;;;16.40;99.90;;;;;;5037180;28;20037;-69
2023/07/03 02:00:54;;;;;;;23.83;6.38;;;16.40;99.90;;;;;;5035754;28;20095;-69
2023/07/03 02:03:32;;;;;;;23.05;5.57;;;16.40;99.90;;;;;;5036935;28;20444;-69
2023/07/03 02:06:01;;;;;;;21.67;5.43;;;16.40;99.90;;;;;;5037438;28;20444;-69
2023/07/03 02:08:29;;;;;;;23.00;6.03;;;16.40;99.90;;;;;;5035411;28;20049;-69
2023/07/03 02:10:55;;;;;;;18.67;5.28;;;16.40;99.90;;;;;;5035752;28;20077;-69
2023/07/03 02:13:21;;;;;;;20.30;5.75;;;16.40;99.90;;;;;;5018984;28;20048;-69
2023/07/03 02:15:47;;;;;;;26.73;6.32;;;16.40;99.90;;;;;;5036663;28;20037;-69
2023/07/03 02:18:17;;;;;;;21.38;5.82;;;16.40;99.90;;;;;;5035310;28;20065;-69
2023/07/03 02:20:44;;;;;;;26.45;5.70;;;16.40;99.90;;;;;;5035637;28;20121;-69
2023/07/03 02:23:10;;;;;;;22.27;5.88;;;16.40;99.90;;;;;;5036597;28;20037;-69
2023/07/03 02:25:36;;;;;;;16.00;5.40;;;16.40;99.90;;;;;;5035280;28;20052;-69
2023/07/03 02:28:01;;;;;;;21.17;6.15;;;16.50;99.90;;;;;;5035124;28;20042;-69
2023/07/03 02:30:27;;;;;;;22.67;6.05;;;16.40;99.90;;;;;;5018698;28;20120;-69
2023/07/03 02:32:53;;;;;;;25.30;5.35;;;16.50;99.90;;;;;;5035156;28;20502;-69
2023/07/03 02:35:18;;;;;;;20.10;5.75;;;16.40;99.90;;;;;;5035101;28;20037;-69
2023/07/03 02:37:44;;;;;;;22.75;4.90;;;16.40;99.90;;;;;;5036217;28;20033;-69
2023/07/03 02:40:13;;;;;;;23.92;5.72;;;16.40;99.90;;;;;;5036790;28;20077;-69
2023/07/03 02:42:39;;;;;;;18.85;5.22;;;16.40;99.90;;;;;;5034979;28;20048;-69
2023/07/03 02:45:06;;;;;;;15.32;4.53;;;16.40;99.90;;;;;;5034865;28;20425;-69
2023/07/03 02:47:35;;;;;;;18.42;4.80;;;16.30;99.90;;;;;;5035121;28;20134;-69
2023/07/03 02:50:01;;;;;;;19.52;5.18;;;16.30;99.90;;;;;;5034757;28;20049;-69
2023/07/03 02:52:26;;;;;;;17.35;4.20;;;16.30;99.90;;;;;;5035067;28;20121;-69
2023/07/03 02:54:52;;;;;;;16.88;4.40;;;16.30;99.90;;;;;;5034682;28;20521;-69
2023/07/03 02:57:17;;;;;;;18.13;4.32;;;16.30;99.90;;;;;;5034519;28;20052;-69
2023/07/03 02:59:43;;;;;;;17.00;4.13;;;16.20;99.90;;;;;;5034625;28;20045;-70
2023/07/03 03:02:09;;;;;;;13.70;4.38;;;16.20;99.90;;;;;;5034633;28;20049;-69
2023/07/03 03:04:34;;;;;;;15.85;4.10;;;16.20;99.90;;;;;;5034440;28;20051;-69
2023/07/03 03:07:00;;;;;;;14.20;3.83;;;16.20;99.90;;;;;;5034681;28;20042;-69
2023/07/03 03:09:25;;;;;;;15.55;3.33;;;16.20;99.60;;;;;;5034565;28;20041;-69
2023/07/03 03:11:51;;;;;;;13.05;3.33;;;16.20;99.30;;;;;;5035626;28;20470;-69
2023/07/03 03:14:16;;;;;;;10.85;3.35;;;16.20;98.90;;;;;;5034391;28;20040;-69
2023/07/03 03:16:42;;;;;;;10.60;2.90;;;16.20;98.40;;;;;;5018034;28;20053;-69
2023/07/03 03:19:07;;;;;;;11.00;2.97;;;16.10;97.90;;;;;;5034544;28;20088;-69
2023/07/03 03:21:33;;;;;;;13.93;2.88;;;16.20;97.70;;;;;;5034497;28;20452;-69
2023/07/03 03:23:59;;;;;;;9.63;3.33;;;16.10;97.20;;;;;;5034202;28;20498;-69
2023/07/03 03:26:24;;;;;;;11.52;2.67;;;16.10;96.80;;;;;;5034047;28;20073;-70
2023/07/03 03:28:50;;;;;;;10.77;2.47;;;16.10;96.30;;;;;;5034013;28;20068;-70
2023/07/03 03:31:16;;;;;;;13.00;2.85;;;16.10;96.00;;;;;;5034116;28;20037;-70
2023/07/03 03:33:41;;;;;;;10.07;2.60;;;16.00;95.90;;;;;;5034273;28;20091;-70
2023/07/03 03:36:07;;;;;;;12.77;3.22;;;16.00;95.50;;;;;;5035453;28;20418;-69
2023/07/03 03:38:33;;;;;;;11.52;2.75;;;15.90;95.40;;;;;;5034039;28;20053;-69
2023/07/03 03:41:00;;;;;;;9.73;2.38;;;15.90;95.40;;;;;;5033863;28;20121;-70
2023/07/03 03:43:26;;;;;;;10.98;2.20;;;15.90;95.10;;;;;;5033823;28;20041;-70
2023/07/03 03:45:56;;;;;;;9.18;2.40;;;15.80;94.70;;;;;;5033825;28;20044;-70
2023/07/03 03:48:22;;;;;;;13.18;2.53;;;15.80;94.40;;;;;;5033560;28;20072;-69
2023/07/03 03:50:47;;;;;;;12.52;2.70;;;15.80;94.20;;;;;;5033722;28;20033;-69
2023/07/03 03:53:13;;;;;;;11.23;2.20;;;15.70;94.20;;;;;;5033697;28;20087;-69
2023/07/03 03:55:39;;;;;;;9.30;2.28;;;15.60;94.20;;;;;;5033525;28;20041;-69
2023/07/03 03:58:04;;;;;;;9.20;2.40;;;15.60;94.40;;;;;;5033563;28;20124;-70
2023/07/03 04:00:30;;;;;;;10.25;2.40;;;15.60;94.30;;;;;;5033559;28;20052;-69
2023/07/03 04:02:56;;;;;;;7.32;1.92;;;15.60;93.90;;;;;;5035041;28;20387;-69
2023/07/03 04:05:21;;;;;;;7.25;2.15;;;15.60;93.80;;;;;;5033414;28;20045;-69
2023/07/03 04:07:47;;;;;;;10.80;2.08;;;15.60;94.00;;;;;;5033661;28;20073;-69
2023/07/03 04:10:13;;;;;;;9.27;2.38;;;15.60;93.50;;;;;;5033250;28;20530;-69
2023/07/03 04:12:38;;;;;;;9.52;2.17;;;15.50;93.40;;;;;;5033271;28;20069;-69
2023/07/03 04:15:05;;;;;;;9.05;2.20;;;15.50;93.40;;;;;;5033476;28;20084;-69
2023/07/03 04:17:31;;;;;;;13.38;2.15;;;15.50;93.40;;;;;;5032500;28;20042;-69
2023/07/03 04:19:57;;;;;;;11.35;1.90;;;15.50;93.50;;;;;;5033114;28;20124;-69
2023/07/03 04:22:22;;;;;;;10.20;2.58;;;15.40;93.40;;;;;;5033336;28;20045;-69
2023/07/03 04:24:48;;;;;;;9.93;2.30;;;15.40;93.40;;;;;;5033034;28;20466;-69
2023/07/03 04:27:14;;;;;;;11.90;2.88;;;15.40;93.50;;;;;;5032920;28;20052;-69
2023/07/03 04:29:41;;;;;;;14.57;2.40;;;15.40;93.60;;;;;;5032863;28;20414;-69
2023/07/03 04:32:07;;;;;;;10.60;2.38;;;15.40;93.80;;;;;;5016409;28;20045;-69
2023/07/03 04:34:32;;;;;;;13.75;2.28;;;15.40;93.90;;;;;;5032789;28;20117;-69
2023/07/03 04:36:58;;;;;;;8.73;2.25;;;15.40;93.80;;;;;;5032709;28;20048;-69
2023/07/03 04:39:24;;;;;;;7.35;2.10;;;15.40;93.90;;;;;;5032701;28;20045;-69
2023/07/03 04:41:49;;;;;;;9.65;2.38;;;15.50;93.80;;;;;;5033922;28;20037;-69
2023/07/03 04:44:15;;;;;;;13.32;2.20;;;15.50;93.90;;;;;;5032904;28;20108;-69
2023/07/03 04:46:43;;;;;;;12.75;2.70;;;15.50;93.90;;;;;;5032580;28;20091;-69
2023/07/03 04:49:10;;;;;;;8.85;2.25;;;15.60;93.90;;;;;;5032544;28;20063;-69
2023/07/03 04:51:36;;;;;;;9.50;2.13;;;15.60;93.90;;;;;;5032598;28;20042;-69
2023/07/03 04:54:03;;;;;;;9.77;2.25;;;15.60;93.90;;;;;;5032531;28;20052;-69
2023/07/03 04:56:32;;;;;;;10.55;2.20;;;15.60;93.90;;;;;;5033441;28;20505;-69
2023/07/03 04:58:57;;;;;;;13.43;2.40;;;15.60;93.80;;;;;;5032380;28;20052;-69
2023/07/03 05:01:24;;;;;;;10.10;1.92;;;15.70;93.90;;;;;;5032374;28;20049;-69
2023/07/03 05:03:49;;;;;;;12.40;2.40;;;15.70;93.90;;;;;;5032597;28;20049;-69
2023/07/03 05:06:15;;;;;;;10.35;2.47;;;15.70;93.90;;;;;;5032180;28;20084;-69
2023/07/03 05:08:41;;;;;;;12.45;2.60;;;15.70;93.90;;;;;;5032200;28;20041;-69
2023/07/03 05:11:06;;;;;;;10.48;2.00;;;15.80;94.10;;;;;;5032241;28;20049;-69
2023/07/03 05:13:32;;;;;;;10.90;2.22;;;15.90;94.10;;;;;;5032203;28;20046;-70
2023/07/03 05:15:58;;;;;;;10.65;2.22;;;15.80;94.10;;;;;;5033645;28;20041;-69
2023/07/03 05:18:23;;;;;;;9.90;1.95;;;15.90;94.10;;;;;;5032340;28;20044;-69
2023/07/03 05:20:49;;;;;;;20.55;2.83;;;16.00;94.20;;;;;;5033354;28;20632;-69
2023/07/03 05:23:15;;;;;;;11.07;2.13;;;16.00;94.20;;;;;;5033832;28;20041;-69
2023/07/03 05:25:45;;;;;;;8.45;2.30;;;16.00;94.20;;;;;;5033822;28;20072;-69
2023/07/03 05:28:11;;;;;;;8.82;2.03;;;16.10;94.30;;;;;;5030986;28;20413;-69
2023/07/03 05:30:36;;;;;;;10.73;2.03;;;16.10;94.30;;;;;;5031878;28;20038;-70
2023/07/03 05:33:02;;;;;;;8.50;2.42;;;16.10;94.30;;;;;;5031951;28;20039;-69
2023/07/03 05:35:28;;;;;;;9.70;2.20;;;16.10;94.30;;;;;;5031790;28;20037;-69
2023/07/03 05:37:53;;;;;;;13.00;2.45;;;16.20;94.40;;;;;;5031958;28;20053;-69
2023/07/03 05:40:19;;;;;;;12.07;2.60;;;16.20;94.40;;;;;;5031861;28;20065;-69
2023/07/03 05:42:45;;;;;;;13.63;2.33;;;16.30;94.50;;;;;;5031880;28;20060;-69
2023/07/03 05:45:11;;;;;;;13.75;2.20;;;16.30;94.50;;;;;;5031884;28;20041;-69
2023/07/03 05:47:37;;;;;;;11.20;2.63;;;16.30;94.40;;;;;;5031751;28;20042;-69
2023/07/03 05:50:04;;;;;;;10.25;2.47;;;16.30;94.50;;;;;;5032962;28;20096;-69
2023/07/03 05:52:29;;;;;;;10.15;2.40;;;16.30;94.70;;;;;;5031957;28;20081;-69
2023/07/03 05:54:55;;;;;;;12.77;2.28;;;16.30;94.90;;;;;;5031706;28;20084;-69
2023/07/03 05:57:21;;;;;;;8.13;1.95;;;16.30;95.00;;;;;;5031598;28;20037;-69
2023/07/03 05:59:48;;;;;;;13.23;2.40;;;16.40;94.90;;;;;;5031935;28;20058;-69
2023/07/03 06:02:14;;;;;;;12.48;3.08;;;16.40;94.80;;;;;;5031969;28;20414;-70
2023/07/03 06:04:40;;;;;;;13.35;2.83;;;16.40;94.70;;;;;;5033493;28;20098;-69
2023/07/03 06:07:07;;;;;;;8.23;2.00;;;16.50;95.00;;;;;;5032778;28;20494;-69
2023/07/03 06:09:33;;;;;;;9.68;2.15;;;16.60;95.00;;;;;;5031514;28;20052;-69
2023/07/03 06:11:59;;;;;;;9.52;2.20;;;16.60;95.00;;;;;;5031865;28;20057;-69
2023/07/03 06:14:25;;;;;;;10.88;2.67;;;16.60;94.80;;;;;;5033095;28;20034;-70
2023/07/03 06:16:52;;;;;;;10.02;2.38;;;16.60;94.90;;;;;;5032986;28;20443;-69
2023/07/03 06:19:19;;;;;;;10.80;2.00;;;16.60;95.00;;;;;;5031515;28;20045;-69
2023/07/03 06:21:45;;;;;;;11.48;2.30;;;16.60;94.90;;;;;;5031501;28;20060;-69
2023/07/03 06:24:13;;;;;;;10.20;2.25;;;16.60;95.00;;;;;;5033266;28;20042;-69
2023/07/03 06:26:40;;;;;;;11.07;2.67;;;16.70;95.10;;;;;;5031466;28;20088;-69
2023/07/03 06:29:06;;;;;;;13.02;2.30;;;16.70;95.10;;;;;;5033199;28;20046;-69
2023/07/03 06:31:32;;;;;;;10.90;2.30;;;16.90;95.50;;;;;;5031464;28;20064;-69
2023/07/03 06:33:58;;;;;;;10.48;1.90;;;17.00;95.10;;;;;;5031638;28;20049;-69
2023/07/03 06:36:25;;;;;;;9.00;1.90;;;17.10;94.80;;;;;;5031583;28;20050;-69
2023/07/03 06:38:55;;;;;;;9.48;2.00;;;17.20;94.50;;;;;;5031390;28;20052;-68
2023/07/03 06:41:22;;;;;;;8.80;1.95;;;17.30;94.30;;;;;;5035027;28;20120;-73
2023/07/03 06:43:48;;;;;;;11.10;2.67;;;17.30;93.70;;;;;;5035249;28;20508;-69
2023/07/03 06:46:14;;;;;;;9.38;1.83;;;17.20;93.60;;;;;;5034868;28;20052;-69
2023/07/03 06:48:40;;;;;;;12.27;2.50;;;17.20;93.60;;;;;;5036604;28;20049;-71
2023/07/03 06:51:08;;;;;;;9.40;2.17;;;17.10;93.50;;;;;;5035485;28;20133;-70
2023/07/03 06:53:34;;;;;;;11.23;2.15;;;17.00;93.60;;;;;;5034841;28;20037;-69
2023/07/03 06:56:01;;;;;;;10.93;2.70;;;17.00;93.80;;;;;;5034653;28;20044;-69
2023/07/03 06:58:28;;;;;;;9.85;1.90;;;16.90;93.40;;;;;;5035689;28;20045;-69
2023/07/03 07:00:54;;;;;;;8.80;1.83;;;17.00;93.30;;;;;;5035880;28;20195;-69
2023/07/03 07:03:20;;;;;;;9.35;2.15;;;17.20;92.90;;;;;;5018200;28;20038;-70
2023/07/03 07:05:46;;;;;;;10.70;1.77;;;17.30;92.40;;;;;;5034565;28;20406;-69
2023/07/03 07:08:16;;;;;;;13.73;2.10;;;17.50;92.00;;;;;;5034455;28;20033;-69
2023/07/03 07:10:43;;;;;;;12.98;2.10;;;17.60;92.10;;;;;;5017969;28;20037;-69
2023/07/03 07:13:10;;;;;;;11.25;2.30;;;17.80;92.00;;;;;;5034705;28;20056;-69
2023/07/03 07:15:36;;;;;;;7.35;2.03;;;17.80;91.50;;;;;;5034639;28;20069;-69
2023/07/03 07:18:02;;;;;;;9.63;1.80;;;17.90;90.80;;;;;;5034417;28;20072;-69
2023/07/03 07:20:28;;;;;;;11.30;1.77;;;17.90;90.30;;;;;;5035947;28;20044;-69
2023/07/03 07:22:54;;;;;;;9.55;2.13;;;17.90;90.00;;;;;;5034233;28;20045;-69
2023/07/03 07:25:19;;;;;;;10.77;2.28;;;18.00;90.00;;;;;;5034250;28;20049;-69
2023/07/03 07:27:45;;;;;;;10.90;1.83;;;18.10;89.40;;;;;;5034361;28;20038;-69
2023/07/03 07:30:11;;;;;;;10.80;1.63;;;18.10;88.40;;;;;;5034094;28;20441;-70
2023/07/03 07:32:37;;;;;;;13.93;1.73;;;18.30;88.50;;;;;;5034083;28;20034;-70
2023/07/03 07:35:02;;;;;;;9.90;2.20;;;18.40;87.70;;;;;;5034254;28;20037;-69
2023/07/03 07:37:28;;;;;;;10.43;1.85;;;18.50;86.80;;;;;;5033923;28;20112;-70
2023/07/03 07:39:53;;;;;;;7.85;1.58;;;18.50;86.30;;;;;;5033989;28;20049;-70
2023/07/03 07:42:19;;;;;;;7.97;1.98;;;18.50;86.00;;;;;;5034192;28;20037;-69
2023/07/03 07:44:48;;;;;;;7.03;1.50;;;18.50;85.60;;;;;;5035407;28;20099;-70
2023/07/03 07:47:14;;;;;;;7.93;1.88;;;18.50;85.40;;;;;;5033789;28;20045;-70
2023/07/03 07:49:41;;;;;;;7.10;1.70;;;18.40;85.60;;;;;;5033887;28;20145;-70
2023/07/03 07:52:07;;;;;;;10.02;1.70;;;18.40;85.90;;;;;;5033026;28;20045;-70
2023/07/03 07:54:33;;;;;;;7.57;1.90;;;18.30;85.60;;;;;;5033708;28;20430;-70
2023/07/03 07:56:59;;;;;;;8.25;1.50;;;18.30;85.30;;;;;;5033481;28;20054;-69
2023/07/03 07:59:25;;;;;;;8.00;1.48;;;18.20;85.30;;;;;;5033810;28;20045;-69
2023/07/03 08:01:51;;;;;;;6.65;1.75;;;18.10;85.90;;;;;;5033547;28;20084;-70
2023/07/03 08:04:16;;;;;;;7.72;1.40;;;18.00;86.10;;;;;;5033504;28;20049;-70
2023/07/03 08:06:42;;;;;;;5.32;0.90;;;17.90;86.80;;;;;;5033661;28;20053;-70
2023/07/03 08:09:08;;;;;;;2.85;0.77;;;17.70;88.00;;;;;;5033541;28;20042;-70
2023/07/03 08:11:33;;;;;;;5.13;0.90;;;17.50;89.30;;;;;;5033352;28;20509;-69
2023/07/03 08:13:59;;;;;;;7.25;1.30;;;17.40;90.20;;;;;;5017076;28;20124;-69
2023/07/03 08:16:25;;;;;;;5.35;0.93;;;17.50;90.70;;;;;;5033238;28;20417;-70
2023/07/03 08:18:50;;;;;;;3.83;0.80;;;17.50;90.90;;;;;;5033202;28;20116;-70
2023/07/03 08:21:16;;;;;;;8.00;1.55;;;17.60;90.90;;;;;;5033162;28;20041;-70
2023/07/03 08:23:42;;;;;;;6.13;1.08;;;17.60;91.20;;;;;;5033171;28;20072;-70
2023/07/03 08:26:15;;;;;;;6.35;1.38;;;17.50;91.50;;;;;;5033096;28;20067;-70
2023/07/03 08:28:41;;;;;;;9.20;1.50;;;17.60;91.50;;;;;;5034797;28;20049;-70
2023/07/03 08:31:06;;;;;;;8.73;1.58;;;17.60;92.10;;;;;;5032972;28;20498;-70
2023/07/03 08:33:32;;;;;;;9.50;1.55;;;17.70;91.90;;;;;;5032897;28;20033;-70
2023/07/03 08:35:57;;;;;;;6.97;1.35;;;17.70;92.00;;;;;;5032874;28;20076;-70
2023/07/03 08:38:23;;;;;;;7.88;1.98;;;17.60;92.10;;;;;;5032754;28;20115;-70
2023/07/03 08:40:56;;;;;;;8.68;2.10;;;17.60;92.20;;;;;;5032769;28;20045;-70
2023/07/03 08:43:22;;;;;;;7.43;1.13;;;17.60;92.80;;;;;;5033041;28;20087;-70
2023/07/03 08:45:51;;;;;;;8.10;1.83;;;17.50;93.50;;;;;;5032720;28;20072;-70
2023/07/03 08:48:22;;;;;;;9.00;1.35;;;17.30;94.00;;;;;;5032846;28;20046;-69
2023/07/03 08:50:51;;;;;;;9.23;1.73;;;17.20;94.10;;;;;;5032594;28;20051;-69
2023/07/03 08:53:20;;;;;;;7.70;1.70;;;17.00;94.30;;;;;;5032602;28;20128;-69
2023/07/03 08:55:57;;;;;;;9.43;1.70;;;16.90;94.40;;;;;;5033685;28;20064;-69
2023/07/03 08:58:22;;;;;;;9.50;1.70;;;16.70;94.90;;;;;;5032466;28;20092;-69
2023/07/03 09:01:27;;;;;;;9.85;1.75;;;16.60;95.50;;;;;;5032435;28;20099;-69
2023/07/03 09:04:17;;;;;;;7.63;1.48;;;16.40;96.40;;;;;;5002755;28;20057;-69
2023/07/03 09:06:57;;;;;;;5.03;1.20;;;16.30;97.40;;;;;;5032539;28;20049;-69
2023/07/03 09:09:23;;;;;;;8.45;1.60;;;16.20;97.80;;;;;;5032287;28;20088;-69
2023/07/03 09:12:12;;;;;;;10.38;1.77;;;16.20;98.60;;;;;;5033485;28;20049;-69
2023/07/03 09:14:46;;;;;;;7.45;1.90;;;16.30;98.50;;;;;;5032511;28;20037;-69
2023/07/03 09:17:13;;;;;;;5.15;1.25;;;16.70;98.60;;;;;;5032156;28;20049;-70
2023/07/03 09:19:43;;;;;;;10.75;1.70;;;16.90;98.50;;;;;;5032090;28;20418;-69
2023/07/03 09:22:19;;;;;;;6.72;1.55;;;17.00;98.60;;;;;;5032140;28;20486;-69
2023/07/03 09:24:47;;;;;;;5.95;1.23;;;17.20;97.90;;;;;;5032176;28;20053;-69
2023/07/03 09:27:20;;;;;;;7.55;1.58;;;17.50;98.40;;;;;;5031999;28;20045;-69
2023/07/03 09:29:48;;;;;;;12.10;1.80;;;17.90;98.50;;;;;;5032053;28;20052;-69
2023/07/03 09:32:29;;;;;;;7.13;1.60;;;18.30;97.90;;;;;;5032002;28;20033;-70
2023/07/03 09:35:07;;;;;;;11.13;1.75;;;18.70;97.50;;;;;;5032188;28;20072;-70
2023/07/03 09:37:40;;;;;;;6.15;1.48;;;19.10;96.50;;;;;;5031964;28;20048;-69
2023/07/03 09:40:12;;;;;;;4.80;1.33;;;19.60;96.90;;;;;;5031947;28;20047;-69
2023/07/03 09:42:40;;;;;;;7.55;1.33;;;19.80;94.60;;;;;;5031935;28;20081;-69
2023/07/03 09:45:17;;;;;;;9.10;1.23;;;19.80;92.70;;;;;;5032056;28;20120;-70
2023/07/03 09:47:55;;;;;;;7.10;1.38;;;19.70;91.30;;;;;;5031748;28;20491;-70
2023/07/03 09:50:37;;;;;;;8.00;1.20;;;19.60;91.10;;;;;;5031800;28;20038;-70
2023/07/03 09:53:03;;;;;;;5.18;1.42;;;19.80;89.70;;;;;;5031823;28;20077;-70
2023/07/03 09:55:30;;;;;;;5.32;1.30;;;20.10;88.70;;;;;;5031863;28;20041;-70
2023/07/03 09:57:55;;;;;;;7.32;0.95;;;20.40;85.70;;;;;;5031667;28;20116;-69
2023/07/03 10:00:24;;;;;;;4.38;1.10;;;20.50;82.40;;;;;;5015282;28;20129;-70
2023/07/03 10:02:57;;;;;;;8.00;1.35;;;20.50;79.30;;;;;;5031680;28;20056;-69
2023/07/03 10:05:32;;;;;;;9.32;1.42;;;20.30;77.00;;;;;;5032036;28;20049;-70
2023/07/03 10:08:04;;;;;;;7.53;1.20;;;20.00;75.60;;;;;;5031564;28;20045;-70
2023/07/03 10:10:35;;;;;;;5.63;1.08;;;20.00;74.50;;;;;;5031872;28;20045;-69
2023/07/03 10:13:21;;;;;;;5.60;1.20;;;20.00;75.00;;;;;;5031642;28;20041;-69
2023/07/03 10:15:47;;;;;;;6.65;1.00;;;20.00;73.30;;;;;;5034802;28;20037;-69
2023/07/03 10:18:17;;;;;;;6.47;1.27;;;19.90;74.10;;;;;;5035698;28;20037;-70
2023/07/03 10:20:46;;;;;;;5.85;1.02;;;19.90;74.70;;;;;;5035729;28;20045;-69
2023/07/03 10:23:20;;;;;;;7.88;1.13;;;19.80;73.40;;;;;;5035402;28;20045;-69
2023/07/03 10:25:54;;;;;;;8.48;1.30;;;19.70;71.90;;;;;;5035657;28;20052;-69
2023/07/03 10:28:31;;;;;;;6.07;1.00;;;19.60;72.10;;;;;;5035307;28;20077;-69
2023/07/03 10:31:02;;;;;;;4.65;1.00;;;19.60;72.80;;;;;;5018755;28;20045;-69
2023/07/03 10:33:34;;;;;;;4.60;1.20;;;19.50;73.60;;;;;;5035572;28;20045;-69
2023/07/03 10:36:03;;;;;;;4.50;1.00;;;19.70;73.80;;;;;;5035207;28;20522;-69
2023/07/03 10:38:45;;;;;;;4.00;1.17;;;20.10;74.10;;;;;;5036320;28;20516;-69
2023/07/03 10:41:23;;;;;;;5.80;1.10;;;20.60;73.60;;;;;;5035091;28;20041;-69
2023/07/03 10:44:00;;;;;;;5.28;0.98;;;21.10;72.40;;;;;;5035085;28;20033;-69
2023/07/03 10:46:37;;;;;;;5.13;1.10;;;21.30;70.10;;;;;;5034933;28;20041;-69
2023/07/03 10:49:06;;;;;;;5.32;1.10;;;21.40;69.30;;;;;;5035098;28;20038;-69
2023/07/03 10:51:44;;;;;;;6.00;1.25;;;21.40;68.30;;;;;;5036095;28;20048;-69
2023/07/03 10:54:31;;;;;;;10.50;1.02;;;21.60;68.80;;;;;;5035292;28;20045;-69
2023/07/03 10:57:01;;;;;;;5.20;0.85;;;21.70;66.30;;;;;;5034656;28;20084;-70
2023/07/03 10:59:33;;;;;;;6.18;1.20;;;21.70;66.60;;;;;;5034832;28;20052;-70
2023/07/03 11:02:05;;;;;;;8.85;1.35;;;21.70;65.90;;;;;;5034698;28;20052;-69
2023/07/03 11:04:58;;;;;;;3.53;0.77;;;21.90;65.30;;;;;;5035000;28;20049;-69
2023/07/03 11:07:30;;;;;;;3.38;0.70;;;22.10;64.80;;;;;;5034620;28;20418;-70
2023/07/03 11:10:13;;;;;;;8.45;1.10;;;21.90;63.40;;;;;;5034602;28;20053;-69
2023/07/03 11:13:05;;;;;;;5.93;1.20;;;21.60;61.80;;;;;;5034882;28;20077;-69
2023/07/03 11:15:47;;;;;;;5.95;0.90;;;21.20;63.30;;;;;;5034554;28;20514;-70
2023/07/03 11:18:51;;;;;;;6.43;0.95;;;20.90;63.70;;;;;;5034643;28;20045;-70
2023/07/03 11:21:47;;;;;;;3.67;0.90;;;20.60;65.40;;;;;;4958562;28;20101;-69
2023/07/03 11:24:40;;;;;;;4.68;1.00;;;20.50;65.80;;;;;;4958637;28;20050;-70
2023/07/03 11:27:33;;;;;;;6.95;1.27;;;20.30;66.70;;;;;;5023348;28;20095;-69
2023/07/03 11:30:00;;;;;;;7.25;1.13;;;20.30;67.70;;;;;;5034099;28;20072;-69
2023/07/03 11:32:26;;;;;;;6.47;1.15;;;20.10;67.50;;;;;;5017673;28;20125;-69
2023/07/03 11:34:53;;;;;;;5.70;1.25;;;20.10;68.20;;;;;;5034171;28;20042;-72
2023/07/03 11:37:42;;;;;;;7.38;1.23;;;20.40;68.50;;;;;;5034072;28;20041;-72
2023/07/03 11:40:35;;;;;;;6.30;1.20;;;20.90;67.80;;;;;;5034027;28;20041;-71
2023/07/03 11:43:29;;;;;;;5.85;0.90;;;21.30;66.00;;;;;;5034028;28;20445;-72
2023/07/03 11:45:57;;;;;;;4.95;1.05;;;21.40;62.20;;;;;;5034165;28;20521;-72
2023/07/03 11:48:32;;;;;;;5.80;0.80;;;21.60;63.70;;;;;;5033764;28;20046;-72
2023/07/03 11:51:00;;;;;;;5.43;1.20;;;22.00;63.90;;;;;;5034032;28;20099;-72
2023/07/03 11:53:40;;;;;;;8.55;1.00;;;22.30;64.10;;;;;;5033743;28;20045;-72
2023/07/03 11:56:12;;;;;;;5.20;0.95;;;22.50;62.70;;;;;;5033571;28;20120;-72
2023/07/03 11:58:38;;;;;;;6.63;1.33;;;22.80;62.00;;;;;;5033982;28;20494;-72
2023/07/03 12:01:25;;;;;;;5.60;0.73;;;22.60;61.10;;;;;;5033623;28;20042;-72
2023/07/03 12:03:56;;;;;;;9.45;1.15;;;22.40;60.20;;;;;;5033842;28;20099;-72
2023/07/03 12:06:40;;;;;;;7.32;1.00;;;22.10;60.20;;;;;;5033716;28;20055;-72
2023/07/03 12:09:21;;;;;;;2.90;0.80;;;21.90;59.70;;;;;;5033372;28;20041;-72
2023/07/03 12:12:03;;;;;;;3.10;0.95;;;21.70;59.70;;;;;;5033668;28;20049;-72
2023/07/03 12:14:44;;;;;;;6.22;1.30;;;21.50;59.20;;;;;;5016853;28;20124;-72
2023/07/03 12:17:32;;;;;;;7.63;1.30;;;21.10;59.40;;;;;;5033248;28;20132;-72
2023/07/03 12:20:16;;;;;;;5.85;1.00;;;20.90;60.00;;;;;;5033200;28;20037;-72
2023/07/03 12:22:48;;;;;;;7.53;1.25;;;20.70;60.60;;;;;;5033240;28;20056;-72
2023/07/03 12:25:25;;;;;;;6.45;1.40;;;20.60;61.40;;;;;;5033411;28;20045;-72
2023/07/03 12:27:52;;;;;;;4.63;1.30;;;20.50;61.50;;;;;;5033342;28;20063;-71
2023/07/03 12:30:25;;;;;;;7.28;1.17;;;20.30;61.20;;;;;;5016502;28;20054;-73
2023/07/03 12:32:53;;;;;;;5.30;0.90;;;20.20;61.30;;;;;;5032993;28;20052;-73
2023/07/03 12:35:23;;;;;;;6.28;1.25;;;20.10;61.70;;;;;;5032942;28;20049;-72
2023/07/03 12:37:57;;;;;;;5.70;1.25;;;19.80;61.60;;;;;;5032853;28;20049;-73
2023/07/03 12:40:24;;;;;;;5.28;0.88;;;19.70;62.00;;;;;;5033110;28;20104;-73
2023/07/03 12:42:58;;;;;;;5.00;1.15;;;19.60;62.40;;;;;;5032809;28;20125;-73
2023/07/03 12:45:30;;;;;;;4.95;1.05;;;19.50;62.90;;;;;;5032805;28;20045;-73
2023/07/03 12:48:02;;;;;;;8.07;1.35;;;19.40;63.30;;;;;;5032690;28;20038;-72
2023/07/03 12:50:28;;;;;;;6.22;1.10;;;19.30;64.10;;;;;;5032737;28;20037;-72
2023/07/03 12:52:58;;;;;;;5.70;1.10;;;19.20;64.80;;;;;;5032610;28;20581;-72